createdAt,value
2022-11-28T00:02:24.221Z,2.89
2022-11-28T00:04:54.405Z,3.06
2022-11-28T00:07:24.306Z,2.84
2022-11-28T00:09:54.292Z,2.88
2022-11-28T00:12:24.238Z,2.92
2022-11-28T00:14:54.069Z,3.14
2022-11-28T00:17:23.588Z,2.99
2022-11-28T00:19:53.406Z,3.12
2022-11-28T00:22:23.202Z,2.84
2022-11-28T00:24:53.111Z,2.85
2022-11-28T00:27:22.951Z,2.90
2022-11-28T00:29:55.193Z,2.78
2022-11-28T00:32:24.678Z,2.76
2022-11-28T00:34:54.625Z,2.68
2022-11-28T00:37:24.403Z,2.61
2022-11-28T00:39:54.542Z,2.59
2022-11-28T00:42:24.506Z,2.63
2022-11-28T00:44:54.342Z,2.54
2022-11-28T00:47:23.846Z,2.49
2022-11-28T00:49:53.722Z,2.46
2022-11-28T00:52:23.329Z,2.69
2022-11-28T00:54:53.167Z,2.50
2022-11-28T00:57:22.988Z,2.74
2022-11-28T00:59:52.795Z,2.42
2022-11-28T01:02:22.843Z,2.36
2022-11-28T01:04:52.893Z,2.24
2022-11-28T01:07:22.591Z,2.11
2022-11-28T01:09:53.291Z,2.13
2022-11-28T01:12:22.876Z,2.20
2022-11-28T01:14:53.721Z,2.10
2022-11-28T01:17:25.489Z,2.20
2022-11-28T01:19:55.302Z,2.34
2022-11-28T01:22:24.821Z,2.35
2022-11-28T01:24:54.836Z,1.98
2022-11-28T01:27:24.629Z,2.25
2022-11-28T01:29:54.513Z,2.23
2022-11-28T01:32:24.268Z,2.30
2022-11-28T01:34:54.055Z,2.18
2022-11-28T01:37:23.653Z,2.25
2022-11-28T01:39:53.513Z,2.34
2022-11-28T01:42:23.276Z,2.17
2022-11-28T01:45:04.344Z,2.06
2022-11-28T01:47:35.885Z,2.09
2022-11-28T01:50:08.009Z,2.10
2022-11-28T01:52:40.793Z,2.10
2022-11-28T01:55:13.914Z,1.97
2022-11-28T01:57:45.994Z,1.94
2022-11-28T02:00:21.006Z,1.91
2022-11-28T02:03:06.138Z,1.91
2022-11-28T02:05:37.284Z,1.91
2022-11-28T02:08:09.384Z,1.74
2022-11-28T02:10:58.432Z,1.71
2022-11-28T02:13:38.492Z,1.73
2022-11-28T02:16:37.346Z,1.52
2022-11-28T02:19:26.718Z,1.71
2022-11-28T02:21:59.537Z,1.64
2022-11-28T02:24:49.225Z,1.51
2022-11-28T02:27:22.055Z,1.51
2022-11-28T02:30:10.091Z,1.67
2022-11-28T02:33:01.473Z,1.64
2022-11-28T02:35:34.056Z,1.71
2022-11-28T02:38:19.028Z,1.52
2022-11-28T02:40:51.875Z,1.78
2022-11-28T02:43:33.267Z,1.55
2022-11-28T02:46:18.241Z,1.71
2022-11-28T02:49:06.692Z,1.53
2022-11-28T02:51:54.664Z,1.38
2022-11-28T02:54:26.428Z,1.38
2022-11-28T02:56:56.623Z,1.38
2022-11-28T02:59:41.229Z,1.45
2022-11-28T03:02:19.924Z,1.26
2022-11-28T03:05:05.565Z,1.40
2022-11-28T03:07:41.174Z,1.42
2022-11-28T03:10:30.631Z,1.49
2022-11-28T03:13:06.451Z,1.18
2022-11-28T03:15:41.824Z,1.18
2022-11-28T03:18:14.427Z,1.18
2022-11-28T03:20:50.574Z,1.33
2022-11-28T03:23:34.730Z,1.19
2022-11-28T03:26:13.168Z,1.04
2022-11-28T03:28:52.064Z,1.10
2022-11-28T03:31:25.369Z,1.10
2022-11-28T03:33:58.217Z,0.85
2022-11-28T03:36:33.969Z,1.00
2022-11-28T03:39:12.611Z,0.94
2022-11-28T03:41:51.036Z,0.85
2022-11-28T03:44:23.869Z,0.86
2022-11-28T03:46:56.171Z,0.86
2022-11-28T03:49:32.256Z,0.78
2022-11-28T03:52:08.139Z,0.91
2022-11-28T03:54:49.981Z,0.99
2022-11-28T03:57:27.303Z,0.94
2022-11-28T04:00:00.727Z,0.87
2022-11-28T04:02:53.178Z,0.84
2022-11-28T04:05:41.011Z,0.79
2022-11-28T04:08:23.159Z,0.72
2022-11-28T04:11:14.280Z,0.92
2022-11-28T04:13:56.177Z,0.91
2022-11-28T04:16:45.595Z,0.80
2022-11-28T04:19:30.148Z,0.80
2022-11-28T04:22:06.026Z,0.84
2022-11-28T04:24:54.206Z,0.87
2022-11-28T04:27:27.193Z,0.87
2022-11-28T04:30:00.357Z,0.90
2022-11-28T04:32:33.153Z,0.77
2022-11-28T04:35:09.020Z,0.85
2022-11-28T04:37:41.839Z,0.96
2022-11-28T04:40:13.814Z,0.81
2022-11-28T04:42:53.145Z,0.76
2022-11-28T04:45:35.306Z,0.68
2022-11-28T04:48:06.958Z,0.72
2022-11-28T04:50:45.161Z,0.83
2022-11-28T04:53:23.550Z,0.93
2022-11-28T04:55:56.391Z,0.92
2022-11-28T04:58:44.769Z,0.88
2022-11-28T05:01:17.662Z,0.87
2022-11-28T05:03:47.949Z,0.84
2022-11-28T05:06:32.145Z,0.83
2022-11-28T05:09:02.417Z,0.92
2022-11-28T05:11:32.464Z,1.03
2022-11-28T05:14:03.326Z,1.11
2022-11-28T05:16:33.454Z,0.92
2022-11-28T05:19:05.196Z,1.18
2022-11-28T05:21:35.049Z,1.31
2022-11-28T05:24:04.972Z,1.31
2022-11-28T05:26:35.424Z,1.03
2022-11-28T05:29:07.612Z,1.15
2022-11-28T05:31:39.040Z,1.22
2022-11-28T05:34:09.124Z,1.32
2022-11-28T05:36:41.573Z,1.38
2022-11-28T05:39:11.374Z,1.19
2022-11-28T05:41:41.171Z,1.14
2022-11-28T05:44:11.242Z,1.25
2022-11-28T05:46:41.053Z,1.03
2022-11-28T05:49:10.772Z,1.28
2022-11-28T05:51:40.641Z,1.14
2022-11-28T05:54:10.507Z,1.04
2022-11-28T05:56:42.504Z,1.01
2022-11-28T05:59:13.215Z,1.37
2022-11-28T06:01:42.111Z,1.33
2022-11-28T06:04:12.250Z,1.31
2022-11-28T06:06:42.502Z,1.31
2022-11-28T06:09:12.319Z,1.37
2022-11-28T06:11:42.134Z,1.49
2022-11-28T06:14:12.451Z,1.33
2022-11-28T06:16:43.775Z,1.33
2022-11-28T06:19:14.419Z,1.20
2022-11-28T06:21:44.507Z,1.10
2022-11-28T06:24:14.293Z,1.08
2022-11-28T06:26:44.485Z,1.30
2022-11-28T06:29:14.385Z,1.22
2022-11-28T06:31:44.301Z,1.17
2022-11-28T06:34:14.490Z,1.26
2022-11-28T06:36:45.336Z,1.17
2022-11-28T06:39:16.566Z,1.12
2022-11-28T06:41:46.456Z,1.29
2022-11-28T06:44:17.961Z,1.21
2022-11-28T06:46:47.626Z,1.19
2022-11-28T06:49:17.432Z,1.38
2022-11-28T06:51:47.374Z,1.39
2022-11-28T06:54:17.295Z,1.26
2022-11-28T06:56:47.289Z,1.21
2022-11-28T06:59:17.036Z,1.17
2022-11-28T07:01:47.121Z,1.27
2022-11-28T07:04:16.728Z,1.63
2022-11-28T07:06:46.606Z,1.42
2022-11-28T07:09:16.228Z,1.50
2022-11-28T07:11:46.298Z,1.38
2022-11-28T07:14:15.803Z,1.56
2022-11-28T07:16:45.723Z,1.51
2022-11-28T07:19:15.343Z,1.38
2022-11-28T07:21:45.159Z,1.42
2022-11-28T07:24:14.831Z,1.59
2022-11-28T07:26:44.816Z,1.84
2022-11-28T07:29:19.112Z,1.89
2022-11-28T07:31:48.990Z,1.85
2022-11-28T07:34:18.545Z,1.80
2022-11-28T07:36:48.350Z,1.61
2022-11-28T07:39:18.159Z,1.89
2022-11-28T07:41:47.947Z,1.81
2022-11-28T07:44:20.448Z,1.83
2022-11-28T07:46:50.468Z,1.99
2022-11-28T07:49:20.111Z,2.03
2022-11-28T07:51:49.892Z,1.99
2022-11-28T07:54:19.518Z,1.94
2022-11-28T07:57:11.805Z,1.71
2022-11-28T07:59:20.895Z,1.94
2022-11-28T08:01:50.798Z,1.96
2022-11-28T08:04:20.705Z,1.92
2022-11-28T08:06:50.556Z,1.81
2022-11-28T08:09:20.194Z,1.84
2022-11-28T08:11:51.641Z,1.81
2022-11-28T08:14:24.682Z,1.78
2022-11-28T08:16:54.692Z,1.78
2022-11-28T08:19:29.372Z,1.67
2022-11-28T08:21:57.874Z,2.03
2022-11-28T08:24:27.680Z,1.81
2022-11-28T08:26:57.558Z,1.84
2022-11-28T08:29:27.400Z,1.98
2022-11-28T08:31:57.495Z,2.09
2022-11-28T08:34:27.623Z,1.99
2022-11-28T08:36:57.484Z,2.08
2022-11-28T08:39:27.358Z,2.15
2022-11-28T08:42:00.388Z,2.31
2022-11-28T08:44:30.811Z,2.08
2022-11-28T08:47:01.581Z,2.15
2022-11-28T08:49:31.391Z,2.19
2022-11-28T08:52:01.660Z,2.28
2022-11-28T08:54:31.559Z,2.35
2022-11-28T08:57:02.101Z,2.32
2022-11-28T08:59:33.632Z,2.20
2022-11-28T09:02:03.417Z,2.30
2022-11-28T09:04:33.551Z,2.30
2022-11-28T09:07:03.326Z,2.31
2022-11-28T09:09:33.226Z,2.55
2022-11-28T09:12:03.011Z,2.52
2022-11-28T09:14:33.043Z,2.81
2022-11-28T09:17:02.961Z,2.81
2022-11-28T09:19:32.946Z,2.80
2022-11-28T09:22:02.886Z,2.82
2022-11-28T09:24:33.016Z,2.99
2022-11-28T09:27:04.071Z,2.93
2022-11-28T09:29:33.857Z,2.90
2022-11-28T09:32:03.666Z,2.96
2022-11-28T09:34:33.654Z,2.92
2022-11-28T09:37:05.634Z,3.17
2022-11-28T09:39:50.289Z,3.17
2022-11-28T09:42:10.350Z,3.14
2022-11-28T09:45:08.645Z,3.06
2022-11-28T09:47:40.796Z,3.06
2022-11-28T09:50:26.206Z,3.33
2022-11-28T09:53:11.167Z,3.74
2022-11-28T09:55:53.069Z,4.05
2022-11-28T09:58:45.733Z,4.10
2022-11-28T10:01:18.256Z,3.90
2022-11-28T10:03:56.946Z,4.01
2022-11-28T10:06:32.904Z,4.00
2022-11-28T10:09:11.001Z,4.02
2022-11-28T10:11:50.249Z,4.13
2022-11-28T10:14:56.606Z,3.89
2022-11-28T10:17:35.158Z,3.98
2022-11-28T10:20:13.605Z,3.92
2022-11-28T10:23:03.336Z,3.93
2022-11-28T10:25:44.708Z,3.94
2022-11-28T10:28:17.695Z,3.77
2022-11-28T10:31:02.075Z,3.93
2022-11-28T10:33:35.009Z,3.74
2022-11-28T10:36:07.013Z,3.84
2022-11-28T10:38:38.184Z,3.76
2022-11-28T10:41:19.987Z,3.75
2022-11-28T10:43:59.489Z,3.89
2022-11-28T10:46:38.265Z,3.88
2022-11-28T10:49:29.006Z,3.93
2022-11-28T10:52:19.321Z,4.04
2022-11-28T10:55:04.074Z,4.15
2022-11-28T10:57:42.956Z,4.15
2022-11-28T11:00:17.703Z,4.38
2022-11-28T11:03:02.327Z,4.49
2022-11-28T11:05:34.975Z,4.18
2022-11-28T11:08:14.687Z,4.18
2022-11-28T11:10:57.032Z,4.35
2022-11-28T11:13:28.169Z,4.27
2022-11-28T11:16:03.418Z,4.26
2022-11-28T11:18:38.462Z,4.38
2022-11-28T11:21:25.979Z,4.33
2022-11-28T11:24:18.316Z,4.45
2022-11-28T11:26:50.113Z,4.43
2022-11-28T11:29:31.548Z,4.50
2022-11-28T11:32:03.180Z,4.43
2022-11-28T11:34:41.868Z,4.49
2022-11-28T11:37:36.551Z,4.57
2022-11-28T11:40:25.456Z,4.46
2022-11-28T11:42:58.099Z,4.56
2022-11-28T11:45:35.953Z,4.51
2022-11-28T11:48:06.781Z,4.72
2022-11-28T11:50:38.251Z,4.72
2022-11-28T11:53:08.534Z,4.62
2022-11-28T11:55:50.102Z,4.67
2022-11-28T11:58:28.683Z,4.75
2022-11-28T12:01:00.806Z,4.79
2022-11-28T12:03:33.780Z,4.72
2022-11-28T12:06:14.673Z,4.66
2022-11-28T12:08:44.199Z,4.76
2022-11-28T12:11:25.546Z,4.79
2022-11-28T12:13:57.921Z,4.87
2022-11-28T12:16:48.243Z,4.79
2022-11-28T12:19:36.257Z,4.70
2022-11-28T12:22:09.411Z,4.87
2022-11-28T12:25:06.221Z,4.87
2022-11-28T12:27:55.829Z,4.83
2022-11-28T12:30:34.233Z,4.81
2022-11-28T12:33:32.789Z,4.79
2022-11-28T12:36:11.986Z,4.90
2022-11-28T12:38:50.630Z,4.79
2022-11-28T12:41:32.239Z,4.59
2022-11-28T12:44:27.953Z,4.62
2022-11-28T12:47:18.945Z,4.71
2022-11-28T12:49:54.480Z,4.60
2022-11-28T12:52:40.581Z,4.60
2022-11-28T12:55:16.171Z,4.45
2022-11-28T12:58:10.144Z,4.59
2022-11-28T13:01:01.091Z,4.55
2022-11-28T13:03:57.960Z,4.50
2022-11-28T13:06:45.360Z,4.42
2022-11-28T13:09:32.551Z,4.25
2022-11-28T13:12:32.897Z,4.29
2022-11-28T13:15:05.824Z,4.29
2022-11-28T13:17:41.771Z,4.27
2022-11-28T13:20:26.113Z,4.24
2022-11-28T13:23:05.939Z,4.02
2022-11-28T13:25:50.874Z,4.28
2022-11-28T13:28:32.276Z,4.09
2022-11-28T13:31:20.022Z,3.98
2022-11-28T13:33:57.574Z,4.06
2022-11-28T13:39:13.401Z,3.76
2022-11-28T13:44:23.925Z,3.89
2022-11-28T13:46:53.889Z,3.78
2022-11-28T13:49:26.412Z,3.95
2022-11-28T13:52:22.872Z,3.92
2022-11-28T13:54:55.294Z,3.88
2022-11-28T13:57:28.272Z,3.71
2022-11-28T14:00:22.785Z,3.83
2022-11-28T14:03:00.200Z,3.61
2022-11-28T14:05:36.171Z,3.87
2022-11-28T14:08:08.486Z,3.87
2022-11-28T14:10:58.685Z,3.77
2022-11-28T14:13:41.563Z,3.77
2022-11-28T14:16:33.975Z,3.71
2022-11-28T14:19:06.903Z,3.38
2022-11-28T14:21:54.493Z,3.60
2022-11-28T14:24:47.133Z,3.52
2022-11-28T14:27:23.669Z,3.42
2022-11-28T14:29:56.985Z,3.30
2022-11-28T14:32:35.758Z,3.51
2022-11-28T14:35:09.632Z,3.49
2022-11-28T14:37:55.403Z,3.58
2022-11-28T14:40:51.101Z,3.30
2022-11-28T14:43:29.885Z,3.19
2022-11-28T14:46:26.667Z,3.03
2022-11-28T14:49:02.816Z,3.24
2022-11-28T14:52:09.811Z,2.90
2022-11-28T14:54:39.187Z,2.90
2022-11-28T14:57:14.908Z,2.79
2022-11-28T14:59:45.648Z,2.67
2022-11-28T15:02:33.926Z,2.62
2022-11-28T15:05:09.425Z,2.68
2022-11-28T15:08:13.231Z,2.58
2022-11-28T15:11:00.807Z,2.64
2022-11-28T15:13:59.245Z,2.56
2022-11-28T15:16:31.657Z,2.86
2022-11-28T15:19:07.298Z,2.98
2022-11-28T15:21:45.543Z,3.01
2022-11-28T15:24:24.992Z,2.88
2022-11-28T15:27:14.829Z,2.88
2022-11-28T15:29:47.955Z,2.98
2022-11-28T15:32:17.525Z,2.91
2022-11-28T15:34:50.371Z,2.91
2022-11-28T15:37:20.738Z,2.90
2022-11-28T15:39:51.235Z,3.24
2022-11-28T15:42:33.785Z,3.08
2022-11-28T15:45:10.531Z,3.03
2022-11-28T15:47:42.857Z,2.98
2022-11-28T15:50:25.660Z,3.06
2022-11-28T15:52:59.942Z,3.15
2022-11-28T15:55:34.690Z,3.00
2022-11-28T15:58:15.348Z,3.00
2022-11-28T16:00:51.986Z,3.12
2022-11-28T16:03:24.790Z,3.52
2022-11-28T16:05:57.072Z,3.48
2022-11-28T16:08:30.478Z,3.48
2022-11-28T16:11:02.666Z,3.58
2022-11-28T16:13:34.426Z,3.29
2022-11-28T16:16:04.707Z,3.41
2022-11-28T16:18:34.250Z,3.34
2022-11-28T16:21:04.662Z,3.28
2022-11-28T16:23:37.978Z,3.23
2022-11-28T16:26:10.889Z,3.18
2022-11-28T16:28:41.357Z,3.22
2022-11-28T16:31:16.093Z,3.56
2022-11-28T16:33:50.374Z,3.29
2022-11-28T16:36:29.339Z,3.34
2022-11-28T16:39:14.386Z,3.30
2022-11-28T16:41:56.782Z,3.52
2022-11-28T16:44:28.204Z,3.53
2022-11-28T16:47:00.029Z,3.45
2022-11-28T16:49:42.892Z,3.42
2022-11-28T16:52:27.983Z,3.41
2022-11-28T16:54:59.216Z,3.52
2022-11-28T16:57:40.956Z,3.36
2022-11-28T17:00:11.312Z,3.57
2022-11-28T17:02:41.148Z,3.48
2022-11-28T17:05:11.013Z,3.49
2022-11-28T17:07:40.875Z,3.48
2022-11-28T17:10:15.256Z,3.60
2022-11-28T17:12:45.165Z,3.55
2022-11-28T17:15:20.682Z,3.28
2022-11-28T17:17:50.764Z,3.46
2022-11-28T17:20:20.306Z,3.42
2022-11-28T17:22:51.379Z,3.34
2022-11-28T17:25:23.034Z,3.35
2022-11-28T17:27:53.051Z,3.35
2022-11-28T17:30:23.855Z,3.30
2022-11-28T17:32:53.998Z,3.50
2022-11-28T17:35:26.245Z,3.45
2022-11-28T17:37:56.345Z,3.22
2022-11-28T17:40:36.401Z,3.07
2022-11-28T17:43:07.853Z,2.99
2022-11-28T17:45:38.673Z,3.15
2022-11-28T17:48:11.431Z,3.20
2022-11-28T17:50:43.712Z,2.97
2022-11-28T17:53:16.963Z,3.19
2022-11-28T17:55:53.753Z,3.15
2022-11-28T17:58:26.457Z,3.01
2022-11-28T18:01:00.436Z,3.02
2022-11-28T18:03:30.179Z,3.18
2022-11-28T18:06:00.069Z,2.88
2022-11-28T18:08:30.359Z,2.92
2022-11-28T18:11:06.333Z,2.70
2022-11-28T18:13:36.210Z,2.70
2022-11-28T18:16:06.954Z,2.62
2022-11-28T18:18:36.993Z,2.84
2022-11-28T18:21:11.317Z,2.61
2022-11-28T18:23:44.194Z,2.63
2022-11-28T18:26:17.796Z,2.43
2022-11-28T18:28:48.478Z,2.50
2022-11-28T18:31:26.773Z,2.46
2022-11-28T18:34:01.597Z,2.52
2022-11-28T18:36:29.782Z,2.56
2022-11-28T18:39:00.100Z,2.40
2022-11-28T18:41:32.672Z,2.53
2022-11-28T18:44:04.908Z,2.51
2022-11-28T18:46:35.483Z,2.47
2022-11-28T18:49:07.976Z,2.40
2022-11-28T18:51:37.842Z,2.67
2022-11-28T18:54:08.253Z,2.50
2022-11-28T18:56:40.112Z,2.30
2022-11-28T18:59:11.856Z,2.22
2022-11-28T19:01:42.553Z,2.50
2022-11-28T19:04:15.448Z,2.17
2022-11-28T19:06:48.304Z,2.38
2022-11-28T19:09:18.822Z,2.16
2022-11-28T19:11:48.696Z,2.05
2022-11-28T19:14:23.502Z,2.04
2022-11-28T19:16:54.157Z,1.96
2022-11-28T19:19:24.090Z,2.18
2022-11-28T19:21:54.201Z,2.02
2022-11-28T19:24:25.700Z,1.93
2022-11-28T19:26:55.675Z,1.93
2022-11-28T19:29:25.559Z,1.84
2022-11-28T19:31:55.910Z,1.88
2022-11-28T19:34:25.862Z,1.96
2022-11-28T19:36:56.080Z,2.20
2022-11-28T19:39:32.313Z,2.03
2022-11-28T19:42:02.646Z,2.18
2022-11-28T19:44:32.541Z,2.06
2022-11-28T19:47:02.691Z,2.10
2022-11-28T19:49:32.521Z,2.30
2022-11-28T19:52:04.057Z,2.43
2022-11-28T19:54:34.860Z,2.50
2022-11-28T19:57:07.653Z,2.29
2022-11-28T19:59:37.616Z,2.27
2022-11-28T20:02:08.593Z,2.27
2022-11-28T20:04:42.656Z,2.36
2022-11-28T20:07:12.495Z,2.35
2022-11-28T20:09:43.673Z,2.47
2022-11-28T20:12:13.611Z,2.33
2022-11-28T20:14:43.564Z,2.52
2022-11-28T20:17:13.211Z,2.62
2022-11-28T20:19:45.144Z,2.40
2022-11-28T20:22:17.091Z,2.47
2022-11-28T20:24:48.473Z,2.49
2022-11-28T20:27:18.134Z,2.47
2022-11-28T20:29:51.198Z,2.25
2022-11-28T20:32:20.959Z,2.31
2022-11-28T20:34:52.506Z,2.27
2022-11-28T20:37:24.362Z,2.49
2022-11-28T20:39:54.613Z,2.51
2022-11-28T20:42:24.670Z,2.51
2022-11-28T20:44:54.475Z,2.22
2022-11-28T20:47:24.485Z,2.42
2022-11-28T20:49:54.310Z,2.37
2022-11-28T20:52:23.830Z,2.58
2022-11-28T20:54:55.680Z,2.61
2022-11-28T20:57:29.767Z,2.64
2022-11-28T20:59:59.567Z,2.45
2022-11-28T21:02:29.407Z,2.72
2022-11-28T21:04:59.388Z,2.72
2022-11-28T21:07:31.080Z,2.78
2022-11-28T21:10:00.065Z,2.80
2022-11-28T21:12:29.504Z,2.75
2022-11-28T21:14:59.335Z,2.75
2022-11-28T21:17:37.849Z,2.85
2022-11-28T21:20:09.526Z,2.68
2022-11-28T21:22:39.379Z,2.73
2022-11-28T21:25:09.090Z,2.66
2022-11-28T21:27:39.766Z,2.60
2022-11-28T21:30:10.209Z,2.38
2022-11-28T21:32:40.310Z,2.42
2022-11-28T21:35:10.345Z,2.50
2022-11-28T21:37:40.247Z,2.72
2022-11-28T21:40:10.545Z,2.59
2022-11-28T21:42:40.041Z,2.58
2022-11-28T21:45:10.400Z,2.43
2022-11-28T21:47:42.483Z,2.51
2022-11-28T21:50:14.778Z,2.42
2022-11-28T21:52:46.621Z,2.26
2022-11-28T21:55:18.674Z,2.36
2022-11-28T21:57:50.267Z,2.27
2022-11-28T22:00:45.562Z,2.26
2022-11-28T22:02:52.088Z,2.45
2022-11-28T22:05:23.748Z,2.42
2022-11-28T22:07:53.669Z,2.59
2022-11-28T22:10:24.466Z,2.21
2022-11-28T22:12:54.318Z,2.36
2022-11-28T22:15:24.491Z,2.45
2022-11-28T22:17:54.785Z,2.44
2022-11-28T22:20:24.979Z,2.72
2022-11-28T22:22:54.791Z,2.38
2022-11-28T22:25:24.631Z,2.43
2022-11-28T22:27:54.608Z,2.58
2022-11-28T22:30:26.166Z,2.50
2022-11-28T22:32:56.032Z,2.57
2022-11-28T22:35:26.022Z,2.43
2022-11-28T22:37:55.807Z,2.58
2022-11-28T22:40:26.587Z,2.48
2022-11-28T22:42:57.394Z,2.64
2022-11-28T22:45:26.947Z,2.48
2022-11-28T22:47:57.254Z,2.51
2022-11-28T22:50:27.603Z,2.51
2022-11-28T22:52:57.500Z,2.44
2022-11-28T22:55:27.389Z,2.63
2022-11-28T22:57:57.646Z,2.67
2022-11-28T23:00:27.493Z,2.48
2022-11-28T23:02:57.620Z,2.48
2022-11-28T23:05:27.500Z,2.52
2022-11-28T23:07:57.586Z,2.42
2022-11-28T23:10:27.429Z,2.47
2022-11-28T23:12:58.684Z,2.27
2022-11-28T23:15:28.575Z,2.32
2022-11-28T23:17:59.029Z,2.22
2022-11-28T23:20:28.890Z,2.43
2022-11-28T23:22:59.699Z,2.47
2022-11-28T23:25:29.803Z,2.45
2022-11-28T23:27:59.631Z,2.56
2022-11-28T23:30:29.506Z,2.42
2022-11-28T23:32:59.402Z,2.15
2022-11-28T23:35:29.955Z,2.26
2022-11-28T23:37:59.542Z,2.32
2022-11-28T23:40:29.480Z,2.46
2022-11-28T23:42:59.307Z,2.30
2022-11-28T23:45:29.147Z,2.53
2022-11-28T23:47:58.957Z,2.36
2022-11-28T23:50:28.919Z,2.39
2022-11-28T23:52:58.716Z,2.16
2022-11-28T23:55:28.506Z,2.16
2022-11-28T23:57:59.620Z,2.41
